PWSweather.com
Personal Weather Stations
Station Observations
NYERIN
South Erin, Erin, NY 14838-9545

South ErinErin, NY 14838-9545

Lat: 42.150605, Lon: -76.654038

Elevation: 1663

Station Type: Davis VP Pro II+

http://southerin-ny.org/wx.php

Latest ConditionsUpdated 8:42:01 PM EDT Sunday, Mar 26, 2017
Currently Today's Max Today's Min Today's Average
Temperature 36.8°F2.7°C 40.3°F4.6°C 33.8°F1.0°C 36.2°F2.3°C
Dew Point 36.8°F2.7°C 40.1°F4.5°C 33.8°F1.0°C 36.0°F2.2°C
Winds 6.9 mph SSE11.1 kmh SSE 11.5 mph SE18.5 kmh SE - 5.3 mph 8.5 kmh
Wind Gusts 11.5 mph18.5 kmh 20.7 mph33.3 kmh - -
Humidity 100% 100% 94% 99%
Pressure 30.20 in1022.7 mb 30.36 in1028.1 mb 30.20 in1022.7 mb -
Precipitation - 0.05 in1.3 mm - -
Hour Temp Dew Point Humidity Winds Wind Gusts Pressure Precip Precip Rate Daily Precip Total
08:42 PM 36.8°F2.7°C 36.8°F2.7°C 100% 6.9 mph SSE11.1 kmh SSE 11.5 mph18.5 kmh 30.20 in1022.7 mb - 0.00 in0.0 mm 0.05 in1.3 mm
08:32 PM 36.8°F2.7°C 36.8°F2.7°C 100% 5.8 mph S9.3 kmh S 11.5 mph18.5 kmh 30.20 in1022.7 mb - 0.00 in0.0 mm 0.05 in1.3 mm
08:22 PM 36.8°F2.7°C 36.8°F2.7°C 100% 3.5 mph SSE5.6 kmh SSE 8.1 mph13.0 kmh 30.20 in1022.7 mb - 0.00 in0.0 mm 0.05 in1.3 mm
08:12 PM 36.8°F2.7°C 36.8°F2.7°C 100% 4.6 mph SE7.4 kmh SE 6.9 mph11.1 kmh 30.20 in1022.7 mb - 0.00 in0.0 mm 0.05 in1.3 mm
08:02 PM 36.8°F2.7°C 36.8°F2.7°C 100% 4.6 mph S7.4 kmh S 8.1 mph13.0 kmh 30.20 in1022.7 mb - 0.00 in0.0 mm 0.05 in1.3 mm
07:52 PM 36.9°F2.7°C 36.9°F2.7°C 100% 5.8 mph SSE9.3 kmh SSE 11.5 mph18.5 kmh 30.20 in1022.7 mb - 0.00 in0.0 mm 0.05 in1.3 mm
07:42 PM 37.0°F2.8°C 37.0°F2.8°C 100% 5.8 mph SSE9.3 kmh SSE 8.1 mph13.0 kmh 30.20 in1022.7 mb - 0.00 in0.0 mm 0.05 in1.3 mm
07:32 PM 37.0°F2.8°C 36.7°F2.6°C 99% 10.4 mph SSE16.7 kmh SSE 15.0 mph24.1 kmh 30.20 in1022.7 mb - 0.00 in0.0 mm 0.05 in1.3 mm
07:22 PM 37.2°F2.9°C 36.9°F2.7°C 99% 8.1 mph SSE13.0 kmh SSE 12.7 mph20.4 kmh 30.20 in1022.7 mb - 0.00 in0.0 mm 0.05 in1.3 mm
07:12 PM 37.2°F2.9°C 36.7°F2.6°C 98% 4.6 mph SSE7.4 kmh SSE 11.5 mph18.5 kmh 30.20 in1022.7 mb - 0.00 in0.0 mm 0.05 in1.3 mm
07:02 PM 37.3°F2.9°C 36.8°F2.7°C 98% 6.9 mph S11.1 kmh S 16.1 mph25.9 kmh 30.20 in1022.7 mb - 0.00 in0.0 mm 0.05 in1.3 mm
06:52 PM 37.5°F3.1°C 37.0°F2.8°C 98% 8.1 mph SSE13.0 kmh SSE 10.4 mph16.7 kmh 30.20 in1022.7 mb - 0.00 in0.0 mm 0.05 in1.3 mm
06:42 PM 37.5°F3.1°C 36.7°F2.6°C 97% 6.9 mph SSE11.1 kmh SSE 12.7 mph20.4 kmh 30.20 in1022.7 mb - 0.00 in0.0 mm 0.05 in1.3 mm
06:32 PM 37.7°F3.2°C 37.0°F2.8°C 97% 8.1 mph SSE13.0 kmh SSE 17.3 mph27.8 kmh 30.20 in1022.7 mb - 0.00 in0.0 mm 0.05 in1.3 mm
06:22 PM 37.9°F3.3°C 36.9°F2.7°C 96% 6.9 mph S11.1 kmh S 12.7 mph20.4 kmh 30.21 in1023.0 mb - 0.00 in0.0 mm 0.05 in1.3 mm
06:12 PM 38.0°F3.3°C 37.0°F2.8°C 96% 9.2 mph SSE14.8 kmh SSE 13.8 mph22.2 kmh 30.21 in1023.0 mb - 0.00 in0.0 mm 0.05 in1.3 mm
06:02 PM 38.3°F3.5°C 37.0°F2.8°C 95% 6.9 mph SSE11.1 kmh SSE 8.1 mph13.0 kmh 30.21 in1023.0 mb - 0.00 in0.0 mm 0.05 in1.3 mm
05:52 PM 38.5°F3.6°C 37.2°F2.9°C 95% 5.8 mph SSE9.3 kmh SSE 8.1 mph13.0 kmh 30.21 in1023.0 mb - 0.00 in0.0 mm 0.05 in1.3 mm
05:42 PM 38.7°F3.7°C 37.4°F3.0°C 95% 6.9 mph SSE11.1 kmh SSE 10.4 mph16.7 kmh 30.20 in1022.7 mb - 0.00 in0.0 mm 0.05 in1.3 mm
05:32 PM 38.9°F3.8°C 37.3°F2.9°C 94% 9.2 mph SSE14.8 kmh SSE 11.5 mph18.5 kmh 30.21 in1023.0 mb - 0.00 in0.0 mm 0.05 in1.3 mm
05:22 PM 39.1°F3.9°C 37.5°F3.1°C 94% 9.2 mph S14.8 kmh S 12.7 mph20.4 kmh 30.20 in1022.7 mb - 0.00 in0.0 mm 0.05 in1.3 mm
05:12 PM 39.5°F4.2°C 37.9°F3.3°C 94% 9.2 mph SSE14.8 kmh SSE 20.7 mph33.3 kmh 30.21 in1023.0 mb - 0.00 in0.0 mm 0.05 in1.3 mm
05:02 PM 39.5°F4.2°C 37.9°F3.3°C 94% 8.1 mph SSE13.0 kmh SSE 12.7 mph20.4 kmh 30.21 in1023.0 mb - 0.00 in0.0 mm 0.05 in1.3 mm
04:52 PM 39.6°F4.2°C 38.3°F3.5°C 95% 5.8 mph SSE9.3 kmh SSE 11.5 mph18.5 kmh 30.21 in1023.0 mb - 0.00 in0.0 mm 0.05 in1.3 mm
04:42 PM 39.6°F4.2°C 38.3°F3.5°C 95% 6.9 mph S11.1 kmh S 11.5 mph18.5 kmh 30.21 in1023.0 mb - 0.00 in0.0 mm 0.05 in1.3 mm
04:32 PM 39.9°F4.4°C 38.6°F3.7°C 95% 5.8 mph SSE9.3 kmh SSE 11.5 mph18.5 kmh 30.22 in1023.4 mb - 0.00 in0.0 mm 0.05 in1.3 mm
04:22 PM 40.1°F4.5°C 38.8°F3.8°C 95% 9.2 mph SSE14.8 kmh SSE 13.8 mph22.2 kmh 30.22 in1023.4 mb - 0.00 in0.0 mm 0.05 in1.3 mm
04:12 PM 40.1°F4.5°C 39.1°F3.9°C 96% 10.4 mph SSE16.7 kmh SSE 18.4 mph29.6 kmh 30.23 in1023.7 mb - 0.00 in0.0 mm 0.05 in1.3 mm
04:02 PM 39.9°F4.4°C 38.9°F3.8°C 96% 6.9 mph SSE11.1 kmh SSE 11.5 mph18.5 kmh 30.23 in1023.7 mb - 0.00 in0.0 mm 0.05 in1.3 mm
03:52 PM 40.1°F4.5°C 39.3°F4.1°C 97% 8.1 mph SSE13.0 kmh SSE 16.1 mph25.9 kmh 30.23 in1023.7 mb - 0.00 in0.0 mm 0.05 in1.3 mm
03:42 PM 40.2°F4.6°C 39.7°F4.3°C 98% 8.1 mph SSE13.0 kmh SSE 12.7 mph20.4 kmh 30.24 in1024.0 mb - 0.00 in0.0 mm 0.05 in1.3 mm
03:32 PM 40.3°F4.6°C 40.0°F4.4°C 99% 6.9 mph SSE11.1 kmh SSE 10.4 mph16.7 kmh 30.25 in1024.4 mb - 0.00 in0.0 mm 0.05 in1.3 mm
03:22 PM 40.1°F4.5°C 40.1°F4.5°C 100% 6.9 mph SE11.1 kmh SE 13.8 mph22.2 kmh 30.25 in1024.4 mb - 0.00 in0.0 mm 0.05 in1.3 mm
03:12 PM 40.1°F4.5°C 40.1°F4.5°C 100% 11.5 mph SE18.5 kmh SE 19.6 mph31.5 kmh 30.25 in1024.4 mb - 0.00 in0.0 mm 0.05 in1.3 mm
03:02 PM 40.1°F4.5°C 40.1°F4.5°C 100% 8.1 mph SSE13.0 kmh SSE 16.1 mph25.9 kmh 30.26 in1024.7 mb - 0.00 in0.0 mm 0.05 in1.3 mm
02:52 PM 40.1°F4.5°C 40.1°F4.5°C 100% 8.1 mph SSE13.0 kmh SSE 20.7 mph33.3 kmh 30.27 in1025.1 mb - 0.00 in0.0 mm 0.05 in1.3 mm
02:42 PM 39.9°F4.4°C 39.9°F4.4°C 100% 6.9 mph SSE11.1 kmh SSE 8.1 mph13.0 kmh 30.27 in1025.1 mb - 0.00 in0.0 mm 0.05 in1.3 mm
02:32 PM 39.8°F4.3°C 39.8°F4.3°C 100% 4.6 mph SSE7.4 kmh SSE 10.4 mph16.7 kmh 30.27 in1025.1 mb - 0.00 in0.0 mm 0.05 in1.3 mm
02:22 PM 39.8°F4.3°C 39.8°F4.3°C 100% 5.8 mph SSE9.3 kmh SSE 10.4 mph16.7 kmh 30.27 in1025.1 mb - 0.00 in0.0 mm 0.05 in1.3 mm
02:12 PM 39.6°F4.2°C 39.6°F4.2°C 100% 8.1 mph SSE13.0 kmh SSE 17.3 mph27.8 kmh 30.28 in1025.4 mb - 0.00 in0.0 mm 0.05 in1.3 mm
02:02 PM 39.2°F4.0°C 39.2°F4.0°C 100% 6.9 mph S11.1 kmh S 10.4 mph16.7 kmh 30.29 in1025.7 mb - 0.00 in0.0 mm 0.05 in1.3 mm
01:52 PM 39.1°F3.9°C 39.1°F3.9°C 100% 8.1 mph SSE13.0 kmh SSE 16.1 mph25.9 kmh 30.29 in1025.7 mb - 0.00 in0.0 mm 0.05 in1.3 mm
01:42 PM 38.8°F3.8°C 38.8°F3.8°C 100% 6.9 mph SSE11.1 kmh SSE 8.1 mph13.0 kmh 30.30 in1026.1 mb - 0.00 in0.0 mm 0.05 in1.3 mm
01:32 PM 38.5°F3.6°C 38.5°F3.6°C 100% 6.9 mph SSE11.1 kmh SSE 12.7 mph20.4 kmh 30.30 in1026.1 mb - 0.00 in0.0 mm 0.05 in1.3 mm
01:22 PM 37.9°F3.3°C 37.9°F3.3°C 100% 8.1 mph SSE13.0 kmh SSE 10.4 mph16.7 kmh 30.30 in1026.1 mb - 0.00 in0.0 mm 0.05 in1.3 mm
01:12 PM 37.6°F3.1°C 37.6°F3.1°C 100% 8.1 mph S13.0 kmh S 18.4 mph29.6 kmh 30.31 in1026.4 mb - 0.00 in0.0 mm 0.05 in1.3 mm
01:02 PM 37.3°F2.9°C 37.3°F2.9°C 100% 8.1 mph SSE13.0 kmh SSE 16.1 mph25.9 kmh 30.31 in1026.4 mb - 0.00 in0.0 mm 0.05 in1.3 mm
12:52 PM 37.0°F2.8°C 37.0°F2.8°C 100% 5.8 mph SSE9.3 kmh SSE 13.8 mph22.2 kmh 30.32 in1026.8 mb - 0.00 in0.0 mm 0.05 in1.3 mm
12:42 PM 36.7°F2.6°C 36.7°F2.6°C 100% 5.8 mph SSE9.3 kmh SSE 11.5 mph18.5 kmh 30.32 in1026.8 mb - 0.00 in0.0 mm 0.05 in1.3 mm
12:32 PM 36.3°F2.4°C 36.3°F2.4°C 100% 5.8 mph SSE9.3 kmh SSE 9.2 mph14.8 kmh 30.32 in1026.8 mb - 0.00 in0.0 mm 0.05 in1.3 mm
12:22 PM 36.0°F2.2°C 36.0°F2.2°C 100% 4.6 mph S7.4 kmh S 11.5 mph18.5 kmh 30.32 in1026.8 mb - 0.00 in0.0 mm 0.05 in1.3 mm
12:12 PM 36.0°F2.2°C 36.0°F2.2°C 100% 5.8 mph SE9.3 kmh SE 17.3 mph27.8 kmh 30.33 in1027.1 mb - 0.00 in0.0 mm 0.05 in1.3 mm
12:02 PM 35.8°F2.1°C 35.8°F2.1°C 100% 6.9 mph SSE11.1 kmh SSE 10.4 mph16.7 kmh 30.33 in1027.1 mb - 0.00 in0.0 mm 0.05 in1.3 mm
11:52 AM 35.5°F1.9°C 35.5°F1.9°C 100% 3.5 mph SE5.6 kmh SE 19.6 mph31.5 kmh 30.33 in1027.1 mb - 0.00 in0.0 mm 0.05 in1.3 mm
11:42 AM 35.5°F1.9°C 35.5°F1.9°C 100% 8.1 mph SSE13.0 kmh SSE 10.4 mph16.7 kmh 30.33 in1027.1 mb - 0.00 in0.0 mm 0.05 in1.3 mm
11:32 AM 35.2°F1.8°C 35.2°F1.8°C 100% 8.1 mph S13.0 kmh S 15.0 mph24.1 kmh 30.33 in1027.1 mb - 0.00 in0.0 mm 0.05 in1.3 mm
11:22 AM 35.2°F1.8°C 35.2°F1.8°C 100% 9.2 mph S14.8 kmh S 19.6 mph31.5 kmh 30.33 in1027.1 mb - 0.00 in0.0 mm 0.05 in1.3 mm
11:12 AM 35.0°F1.7°C 35.0°F1.7°C 100% 9.2 mph SSE14.8 kmh SSE 16.1 mph25.9 kmh 30.34 in1027.4 mb - 0.00 in0.0 mm 0.05 in1.3 mm
11:02 AM 34.9°F1.6°C 34.9°F1.6°C 100% 4.6 mph S7.4 kmh S 15.0 mph24.1 kmh 30.33 in1027.1 mb - 0.00 in0.0 mm 0.05 in1.3 mm
10:52 AM 34.9°F1.6°C 34.9°F1.6°C 100% 6.9 mph SSE11.1 kmh SSE 13.8 mph22.2 kmh 30.33 in1027.1 mb - 0.00 in0.0 mm 0.05 in1.3 mm
10:42 AM 35.0°F1.7°C 35.0°F1.7°C 100% 5.8 mph S9.3 kmh S 11.5 mph18.5 kmh 30.33 in1027.1 mb - 0.00 in0.0 mm 0.05 in1.3 mm
10:32 AM 35.0°F1.7°C 35.0°F1.7°C 100% 8.1 mph S13.0 kmh S 13.8 mph22.2 kmh 30.33 in1027.1 mb - 0.00 in0.0 mm 0.05 in1.3 mm
10:22 AM 34.9°F1.6°C 34.9°F1.6°C 100% 8.1 mph SSE13.0 kmh SSE 17.3 mph27.8 kmh 30.32 in1026.8 mb - 0.00 in0.0 mm 0.05 in1.3 mm
10:12 AM 34.7°F1.5°C 34.7°F1.5°C 100% 6.9 mph S11.1 kmh S 11.5 mph18.5 kmh 30.32 in1026.8 mb - 0.00 in0.0 mm 0.05 in1.3 mm
10:02 AM 34.6°F1.4°C 34.6°F1.4°C 100% 6.9 mph S11.1 kmh S 11.5 mph18.5 kmh 30.32 in1026.8 mb - 0.00 in0.0 mm 0.05 in1.3 mm
09:52 AM 34.4°F1.3°C 34.4°F1.3°C 100% 6.9 mph SSE11.1 kmh SSE 10.4 mph16.7 kmh 30.32 in1026.8 mb - 0.00 in0.0 mm 0.05 in1.3 mm
09:42 AM 34.3°F1.3°C 34.3°F1.3°C 100% 5.8 mph SSE9.3 kmh SSE 11.5 mph18.5 kmh 30.32 in1026.8 mb - 0.00 in0.0 mm 0.05 in1.3 mm
09:32 AM 34.1°F1.2°C 34.1°F1.2°C 100% 5.8 mph SSE9.3 kmh SSE 11.5 mph18.5 kmh 30.33 in1027.1 mb - 0.00 in0.0 mm 0.05 in1.3 mm
09:22 AM 34.1°F1.2°C 34.1°F1.2°C 100% 6.9 mph SSE11.1 kmh SSE 12.7 mph20.4 kmh 30.33 in1027.1 mb - 0.00 in0.0 mm 0.05 in1.3 mm
09:12 AM 34.0°F1.1°C 34.0°F1.1°C 100% 4.6 mph SSE7.4 kmh SSE 11.5 mph18.5 kmh 30.33 in1027.1 mb - 0.00 in0.0 mm 0.05 in1.3 mm
09:02 AM 34.0°F1.1°C 34.0°F1.1°C 100% 4.6 mph SE7.4 kmh SE 11.5 mph18.5 kmh 30.33 in1027.1 mb - 0.00 in0.0 mm 0.05 in1.3 mm
08:52 AM 34.0°F1.1°C 34.0°F1.1°C 100% 2.3 mph SE3.7 kmh SE 6.9 mph11.1 kmh 30.33 in1027.1 mb - 0.00 in0.0 mm 0.05 in1.3 mm
08:42 AM 34.1°F1.2°C 34.1°F1.2°C 100% 4.6 mph SSE7.4 kmh SSE 5.8 mph9.3 kmh 30.33 in1027.1 mb - 0.00 in0.0 mm 0.05 in1.3 mm
08:32 AM 34.1°F1.2°C 34.1°F1.2°C 100% 5.8 mph SSE9.3 kmh SSE 9.2 mph14.8 kmh 30.33 in1027.1 mb - 0.00 in0.0 mm 0.05 in1.3 mm
08:22 AM 34.3°F1.3°C 34.3°F1.3°C 100% 6.9 mph SE11.1 kmh SE 11.5 mph18.5 kmh 30.34 in1027.4 mb - 0.00 in0.0 mm 0.05 in1.3 mm
08:12 AM 34.4°F1.3°C 34.4°F1.3°C 100% 2.3 mph SSE3.7 kmh SSE 3.5 mph5.6 kmh 30.34 in1027.4 mb - 0.00 in0.0 mm 0.05 in1.3 mm
08:02 AM 34.4°F1.3°C 34.4°F1.3°C 100% 5.8 mph SSE9.3 kmh SSE 11.5 mph18.5 kmh 30.34 in1027.4 mb - 0.00 in0.0 mm 0.05 in1.3 mm
07:52 AM 34.4°F1.3°C 34.4°F1.3°C 100% 8.1 mph SSE13.0 kmh SSE 12.7 mph20.4 kmh 30.34 in1027.4 mb - 0.00 in0.0 mm 0.05 in1.3 mm
07:42 AM 34.6°F1.4°C 34.6°F1.4°C 100% 6.9 mph S11.1 kmh S 15.0 mph24.1 kmh 30.34 in1027.4 mb - 0.00 in0.0 mm 0.05 in1.3 mm
07:32 AM 34.6°F1.4°C 34.6°F1.4°C 100% 4.6 mph SE7.4 kmh SE 6.9 mph11.1 kmh 30.34 in1027.4 mb - 0.00 in0.0 mm 0.05 in1.3 mm
07:22 AM 34.6°F1.4°C 34.6°F1.4°C 100% 2.3 mph SSE3.7 kmh SSE 5.8 mph9.3 kmh 30.34 in1027.4 mb - 0.00 in0.0 mm 0.05 in1.3 mm
07:12 AM 34.6°F1.4°C 34.6°F1.4°C 100% 3.5 mph SE5.6 kmh SE 10.4 mph16.7 kmh 30.34 in1027.4 mb - 0.00 in0.0 mm 0.05 in1.3 mm
07:02 AM 34.6°F1.4°C 34.6°F1.4°C 100% 3.5 mph SSE5.6 kmh SSE 6.9 mph11.1 kmh 30.34 in1027.4 mb - 0.00 in0.0 mm 0.05 in1.3 mm
06:52 AM 34.6°F1.4°C 34.6°F1.4°C 100% 4.6 mph SE7.4 kmh SE 6.9 mph11.1 kmh 30.34 in1027.4 mb - 0.00 in0.0 mm 0.05 in1.3 mm
06:42 AM 34.6°F1.4°C 34.6°F1.4°C 100% 5.8 mph SE9.3 kmh SE 8.1 mph13.0 kmh 30.34 in1027.4 mb - 0.00 in0.0 mm 0.05 in1.3 mm
06:32 AM 34.6°F1.4°C 34.6°F1.4°C 100% 2.3 mph SSE3.7 kmh SSE 3.5 mph5.6 kmh 30.34 in1027.4 mb - 0.00 in0.0 mm 0.05 in1.3 mm
06:22 AM 34.4°F1.3°C 34.4°F1.3°C 100% Calm Calm 3.5 mph5.6 kmh 30.34 in1027.4 mb - 0.00 in0.0 mm 0.05 in1.3 mm
06:12 AM 34.4°F1.3°C 34.4°F1.3°C 100% 3.5 mph SE5.6 kmh SE 3.5 mph5.6 kmh 30.34 in1027.4 mb - 0.00 in0.0 mm 0.05 in1.3 mm
06:02 AM 34.4°F1.3°C 34.4°F1.3°C 100% 2.3 mph SSE3.7 kmh SSE 5.8 mph9.3 kmh 30.34 in1027.4 mb - 0.00 in0.0 mm 0.05 in1.3 mm
05:52 AM 34.4°F1.3°C 34.4°F1.3°C 100% 5.8 mph SSE9.3 kmh SSE 11.5 mph18.5 kmh 30.33 in1027.1 mb - 0.00 in0.0 mm 0.05 in1.3 mm
05:42 AM 34.3°F1.3°C 34.3°F1.3°C 100% 3.5 mph SSE5.6 kmh SSE 10.4 mph16.7 kmh 30.33 in1027.1 mb - 0.00 in0.0 mm 0.05 in1.3 mm
05:32 AM 34.3°F1.3°C 34.3°F1.3°C 100% 2.3 mph SSE3.7 kmh SSE 3.5 mph5.6 kmh 30.33 in1027.1 mb - 0.00 in0.0 mm 0.05 in1.3 mm
05:22 AM 34.3°F1.3°C 34.3°F1.3°C 100% 3.5 mph SE5.6 kmh SE 8.1 mph13.0 kmh 30.33 in1027.1 mb - 0.00 in0.0 mm 0.05 in1.3 mm
05:12 AM 34.3°F1.3°C 34.3°F1.3°C 100% 3.5 mph SE5.6 kmh SE 4.6 mph7.4 kmh 30.33 in1027.1 mb - 0.00 in0.0 mm 0.05 in1.3 mm
05:02 AM 34.3°F1.3°C 34.3°F1.3°C 100% 1.2 mph SE1.9 kmh SE 3.5 mph5.6 kmh 30.34 in1027.4 mb - 0.02 in0.5 mm 0.05 in1.3 mm
04:52 AM 34.1°F1.2°C 34.1°F1.2°C 100% 1.2 mph SE1.9 kmh SE 3.5 mph5.6 kmh 30.33 in1027.1 mb - 0.03 in0.8 mm 0.03 in0.8 mm
04:42 AM 34.1°F1.2°C 34.1°F1.2°C 100% Calm Calm -- 30.34 in1027.4 mb - 0.00 in0.0 mm 0.00 in0.0 mm
04:32 AM 34.1°F1.2°C 34.1°F1.2°C 100% Calm Calm 1.2 mph1.9 kmh 30.34 in1027.4 mb - 0.00 in0.0 mm 0.00 in0.0 mm
04:22 AM 34.1°F1.2°C 34.1°F1.2°C 100% 2.3 mph ESE3.7 kmh ESE 4.6 mph7.4 kmh 30.33 in1027.1 mb - 0.00 in0.0 mm 0.00 in0.0 mm
04:12 AM 34.1°F1.2°C 34.1°F1.2°C 100% 2.3 mph ESE3.7 kmh ESE 3.5 mph5.6 kmh 30.33 in1027.1 mb - 0.00 in0.0 mm 0.00 in0.0 mm
04:02 AM 34.1°F1.2°C 34.1°F1.2°C 100% 1.2 mph ESE1.9 kmh ESE 2.3 mph3.7 kmh 30.33 in1027.1 mb - 0.00 in0.0 mm 0.00 in0.0 mm
03:52 AM 34.1°F1.2°C 34.1°F1.2°C 100% 1.2 mph ESE1.9 kmh ESE 2.3 mph3.7 kmh 30.33 in1027.1 mb - 0.00 in0.0 mm 0.00 in0.0 mm
03:42 AM 34.1°F1.2°C 34.1°F1.2°C 100% Calm Calm 2.3 mph3.7 kmh 30.34 in1027.4 mb - 0.00 in0.0 mm 0.00 in0.0 mm
03:32 AM 34.0°F1.1°C 34.0°F1.1°C 100% 1.2 mph E1.9 kmh E 4.6 mph7.4 kmh 30.34 in1027.4 mb - 0.00 in0.0 mm 0.00 in0.0 mm
03:22 AM 34.0°F1.1°C 34.0°F1.1°C 100% Calm Calm 2.3 mph3.7 kmh 30.34 in1027.4 mb - 0.00 in0.0 mm 0.00 in0.0 mm
03:12 AM 34.0°F1.1°C 34.0°F1.1°C 100% 2.3 mph SE3.7 kmh SE 4.6 mph7.4 kmh 30.33 in1027.1 mb - 0.00 in0.0 mm 0.00 in0.0 mm
03:02 AM 34.0°F1.1°C 34.0°F1.1°C 100% 1.2 mph SE1.9 kmh SE 2.3 mph3.7 kmh 30.33 in1027.1 mb - 0.00 in0.0 mm 0.00 in0.0 mm
02:52 AM 34.0°F1.1°C 34.0°F1.1°C 100% 1.2 mph SSE1.9 kmh SSE 1.2 mph1.9 kmh 30.33 in1027.1 mb - 0.00 in0.0 mm 0.00 in0.0 mm
02:42 AM 34.0°F1.1°C 34.0°F1.1°C 100% 2.3 mph SSE3.7 kmh SSE 5.8 mph9.3 kmh 30.33 in1027.1 mb - 0.00 in0.0 mm 0.00 in0.0 mm
02:32 AM 34.0°F1.1°C 34.0°F1.1°C 100% 1.2 mph ESE1.9 kmh ESE 3.5 mph5.6 kmh 30.34 in1027.4 mb - 0.00 in0.0 mm 0.00 in0.0 mm
02:22 AM 33.8°F1.0°C 33.8°F1.0°C 100% Calm Calm 2.3 mph3.7 kmh 30.35 in1027.8 mb - 0.00 in0.0 mm 0.00 in0.0 mm
02:12 AM 33.8°F1.0°C 33.8°F1.0°C 100% Calm Calm 2.3 mph3.7 kmh 30.36 in1028.1 mb - 0.00 in0.0 mm 0.00 in0.0 mm
02:02 AM 33.8°F1.0°C 33.8°F1.0°C 100% Calm Calm 1.2 mph1.9 kmh 30.35 in1027.8 mb - 0.00 in0.0 mm 0.00 in0.0 mm
01:52 AM 33.8°F1.0°C 33.8°F1.0°C 100% Calm Calm 1.2 mph1.9 kmh 30.35 in1027.8 mb - 0.00 in0.0 mm 0.00 in0.0 mm
01:42 AM 33.8°F1.0°C 33.8°F1.0°C 100% 1.2 mph ESE1.9 kmh ESE 3.5 mph5.6 kmh 30.36 in1028.1 mb - 0.00 in0.0 mm 0.00 in0.0 mm
01:32 AM 33.8°F1.0°C 33.8°F1.0°C 100% Calm Calm -- 30.36 in1028.1 mb - 0.00 in0.0 mm 0.00 in0.0 mm